createdAt,value
2023-03-30T00:01:15.111Z,80.20
2023-03-30T00:03:43.355Z,80.10
2023-03-30T00:06:11.442Z,80.10
2023-03-30T00:08:38.620Z,79.70
2023-03-30T00:11:07.801Z,79.50
2023-03-30T00:13:36.061Z,79.40
2023-03-30T00:16:04.568Z,79.40
2023-03-30T00:18:31.289Z,79.20
2023-03-30T00:21:02.839Z,79.00
2023-03-30T00:23:31.050Z,79.20
2023-03-30T00:25:58.093Z,79.00
2023-03-30T00:28:26.216Z,79.10
2023-03-30T00:30:53.680Z,79.10
2023-03-30T00:33:30.195Z,79.10
2023-03-30T00:36:00.608Z,79.20
2023-03-30T00:38:27.354Z,79.70
2023-03-30T00:40:56.307Z,79.90
2023-03-30T00:43:23.975Z,80.20
2023-03-30T00:45:51.904Z,80.20
2023-03-30T00:48:27.345Z,80.20
2023-03-30T00:50:57.095Z,80.30
2023-03-30T00:53:35.682Z,80.30
2023-03-30T00:56:04.612Z,80.40
2023-03-30T00:58:32.053Z,80.80
2023-03-30T01:01:01.801Z,81.40
2023-03-30T01:03:36.323Z,81.90
2023-03-30T01:06:07.443Z,81.80
2023-03-30T01:08:34.549Z,82.20
2023-03-30T01:11:02.593Z,82.80
2023-03-30T01:13:31.304Z,82.90
2023-03-30T01:16:05.456Z,83.30
2023-03-30T01:18:54.716Z,83.60
2023-03-30T01:21:58.808Z,84.10
2023-03-30T01:24:35.023Z,84.40
2023-03-30T01:27:30.365Z,84.80
2023-03-30T01:30:08.945Z,85.40
2023-03-30T01:32:57.373Z,86.00
2023-03-30T01:35:58.223Z,86.00
2023-03-30T01:38:24.837Z,86.30
2023-03-30T01:41:04.853Z,85.60
2023-03-30T01:43:57.540Z,85.00
2023-03-30T01:46:31.404Z,84.40
2023-03-30T01:49:29.916Z,83.70
2023-03-30T01:52:08.476Z,83.40
2023-03-30T01:54:41.925Z,83.60
2023-03-30T01:57:51.389Z,83.90
2023-03-30T02:00:22.540Z,83.60
2023-03-30T02:02:55.635Z,83.80
2023-03-30T02:05:24.541Z,83.90
2023-03-30T02:07:55.111Z,84.10
2023-03-30T02:10:26.115Z,84.60
2023-03-30T02:12:55.360Z,84.90
2023-03-30T02:15:23.479Z,85.10
2023-03-30T02:17:50.531Z,85.20
2023-03-30T02:20:17.689Z,84.80
2023-03-30T02:22:45.735Z,84.80
2023-03-30T02:25:13.501Z,83.80
2023-03-30T02:27:41.979Z,83.10
2023-03-30T02:30:09.598Z,82.50
2023-03-30T02:32:46.813Z,81.70
2023-03-30T02:35:34.736Z,80.10
2023-03-30T02:38:29.393Z,79.20
2023-03-30T02:41:23.596Z,77.80
2023-03-30T02:44:12.953Z,76.50
2023-03-30T02:47:01.511Z,75.70
2023-03-30T02:49:57.583Z,74.00
2023-03-30T02:53:03.263Z,73.30
2023-03-30T02:55:37.067Z,72.70
2023-03-30T02:58:16.012Z,72.10
2023-03-30T03:01:15.084Z,71.50
2023-03-30T03:03:47.858Z,71.00
2023-03-30T03:06:15.685Z,70.40
2023-03-30T03:08:44.746Z,70.20
2023-03-30T03:11:11.506Z,69.30
2023-03-30T03:13:38.614Z,69.20
2023-03-30T03:16:08.025Z,68.60
2023-03-30T03:18:39.891Z,68.30
2023-03-30T03:21:07.681Z,68.30
2023-03-30T03:23:35.342Z,68.10
2023-03-30T03:26:02.369Z,67.70
2023-03-30T03:28:30.137Z,67.70
2023-03-30T03:30:58.264Z,67.80
2023-03-30T03:33:25.779Z,67.90
2023-03-30T03:35:54.100Z,67.50
2023-03-30T03:38:24.659Z,67.70
2023-03-30T03:40:55.930Z,67.30
2023-03-30T03:43:22.754Z,66.90
2023-03-30T03:45:50.632Z,67.10
2023-03-30T03:48:19.184Z,67.00
2023-03-30T03:50:49.163Z,66.80
2023-03-30T03:53:15.763Z,66.70
2023-03-30T03:55:42.993Z,66.40
2023-03-30T03:58:09.603Z,66.30
2023-03-30T04:00:36.224Z,66.40
2023-03-30T04:03:04.471Z,66.10
2023-03-30T04:05:31.378Z,66.30
2023-03-30T04:07:58.199Z,66.20
2023-03-30T04:10:24.927Z,66.40
2023-03-30T04:12:51.586Z,66.60
2023-03-30T04:15:18.293Z,67.10
2023-03-30T04:17:47.273Z,67.10
2023-03-30T04:20:15.405Z,67.40
2023-03-30T04:22:42.541Z,67.80
2023-03-30T04:25:11.557Z,67.80
2023-03-30T04:27:38.770Z,68.10
2023-03-30T04:30:05.855Z,68.40
2023-03-30T04:32:35.007Z,68.90
2023-03-30T04:35:02.003Z,69.30
2023-03-30T04:37:31.402Z,69.30
2023-03-30T04:40:02.086Z,69.40
2023-03-30T04:42:30.479Z,69.50
2023-03-30T04:44:57.858Z,69.70
2023-03-30T04:47:28.705Z,69.80
2023-03-30T04:49:55.475Z,70.30
2023-03-30T04:52:22.597Z,71.00
2023-03-30T04:54:49.338Z,71.20
2023-03-30T04:57:16.433Z,72.00
2023-03-30T04:59:44.357Z,72.80
2023-03-30T05:02:12.674Z,73.70
2023-03-30T05:04:39.940Z,74.30
2023-03-30T05:07:07.216Z,76.20
2023-03-30T05:09:33.866Z,75.90
2023-03-30T05:12:00.690Z,76.30
2023-03-30T05:14:27.331Z,77.30
2023-03-30T05:16:53.989Z,77.50
2023-03-30T05:19:21.959Z,78.00
2023-03-30T05:21:48.656Z,78.70
2023-03-30T05:24:15.577Z,78.90
2023-03-30T05:26:42.313Z,79.00
2023-03-30T05:29:09.960Z,79.40
2023-03-30T05:31:36.753Z,80.00
2023-03-30T05:34:03.532Z,80.40
2023-03-30T05:36:30.207Z,80.30
2023-03-30T05:38:57.146Z,80.40
2023-03-30T05:41:23.884Z,80.80
2023-03-30T05:43:50.783Z,81.00
2023-03-30T05:46:17.572Z,81.10
2023-03-30T05:48:44.286Z,81.40
2023-03-30T05:51:14.519Z,81.50
2023-03-30T05:53:41.424Z,81.50
2023-03-30T05:56:10.386Z,81.80
2023-03-30T05:58:38.608Z,82.00
2023-03-30T06:01:09.629Z,81.90
2023-03-30T06:03:36.456Z,81.80
2023-03-30T06:06:03.292Z,81.90
2023-03-30T06:08:29.988Z,81.80
2023-03-30T06:10:57.291Z,81.80
2023-03-30T06:13:24.394Z,82.00
2023-03-30T06:15:51.389Z,82.00
2023-03-30T06:18:18.184Z,82.10
2023-03-30T06:20:48.718Z,82.10
2023-03-30T06:23:16.456Z,82.10
2023-03-30T06:25:52.986Z,82.20
2023-03-30T06:28:21.232Z,82.00
2023-03-30T06:30:49.324Z,82.00
2023-03-30T06:33:16.654Z,81.70
2023-03-30T06:35:51.148Z,81.70
2023-03-30T06:38:19.154Z,81.70
2023-03-30T06:40:46.473Z,81.20
2023-03-30T06:43:19.042Z,80.70
2023-03-30T06:45:53.315Z,81.00
2023-03-30T06:48:23.783Z,80.60
2023-03-30T06:50:51.332Z,80.60
2023-03-30T06:53:18.218Z,80.80
2023-03-30T06:55:45.263Z,80.80
2023-03-30T06:58:11.845Z,81.00
2023-03-30T07:00:38.484Z,80.60
2023-03-30T07:03:06.508Z,81.00
2023-03-30T07:05:33.353Z,80.60
2023-03-30T07:08:00.292Z,80.70
2023-03-30T07:10:27.174Z,80.80
2023-03-30T07:12:53.931Z,80.90
2023-03-30T07:15:20.533Z,81.20
2023-03-30T07:17:47.260Z,81.00
2023-03-30T07:20:17.139Z,81.20
2023-03-30T07:22:43.770Z,81.30
2023-03-30T07:25:10.901Z,81.60
2023-03-30T07:27:38.165Z,81.90
2023-03-30T07:30:17.872Z,82.30
2023-03-30T07:32:50.427Z,84.20
2023-03-30T07:35:17.432Z,85.90
2023-03-30T07:37:44.165Z,87.00
2023-03-30T07:40:12.704Z,87.60
2023-03-30T07:42:39.595Z,88.00
2023-03-30T07:45:07.051Z,88.80
2023-03-30T07:47:33.936Z,89.20
2023-03-30T07:50:00.737Z,89.30
2023-03-30T07:52:27.938Z,88.80
2023-03-30T07:54:54.837Z,89.30
2023-03-30T07:57:22.538Z,88.10
2023-03-30T07:59:49.510Z,87.90
2023-03-30T08:02:17.382Z,87.90
2023-03-30T08:04:44.700Z,87.70
2023-03-30T08:07:12.790Z,87.20
2023-03-30T08:09:39.517Z,85.80
2023-03-30T08:12:06.814Z,85.30
2023-03-30T08:14:33.569Z,84.20
2023-03-30T08:17:00.676Z,83.40
2023-03-30T08:19:28.493Z,83.10
2023-03-30T08:21:56.907Z,82.40
2023-03-30T08:24:23.711Z,80.90
2023-03-30T08:26:50.737Z,80.90
2023-03-30T08:29:18.801Z,78.80
2023-03-30T08:31:45.781Z,78.30
2023-03-30T08:34:12.874Z,77.90
2023-03-30T08:36:39.594Z,75.50
2023-03-30T08:39:06.390Z,73.70
2023-03-30T08:41:59.830Z,68.40
2023-03-30T08:44:36.942Z,67.40
2023-03-30T08:47:08.866Z,67.90
2023-03-30T08:49:51.690Z,63.80
2023-03-30T08:52:23.679Z,64.40
2023-03-30T08:54:52.368Z,60.40
2023-03-30T08:57:52.596Z,56.50
2023-03-30T09:00:34.306Z,51.70
2023-03-30T09:03:25.337Z,50.80
2023-03-30T09:05:57.145Z,49.90
2023-03-30T09:08:29.063Z,50.20
2023-03-30T09:11:01.665Z,52.20
2023-03-30T09:13:33.516Z,48.10
2023-03-30T09:16:14.575Z,46.00
2023-03-30T09:18:44.745Z,46.90
2023-03-30T09:21:13.398Z,45.70
2023-03-30T09:23:40.662Z,44.60
2023-03-30T09:26:24.306Z,45.20
2023-03-30T09:29:18.943Z,46.40
2023-03-30T09:31:55.923Z,47.10
2023-03-30T09:34:31.273Z,49.20
2023-03-30T09:37:04.835Z,50.90
2023-03-30T09:39:33.878Z,51.90
2023-03-30T09:42:24.435Z,54.50
2023-03-30T09:45:22.384Z,55.40
2023-03-30T09:47:49.091Z,56.80
2023-03-30T09:50:23.466Z,57.50
2023-03-30T09:53:02.554Z,58.60
2023-03-30T09:55:32.270Z,56.00
2023-03-30T09:58:12.748Z,54.70
2023-03-30T10:00:39.901Z,54.30
2023-03-30T10:03:07.929Z,54.50
2023-03-30T10:05:36.445Z,54.80
2023-03-30T10:08:20.485Z,54.80
2023-03-30T10:10:55.247Z,55.10
2023-03-30T10:13:30.548Z,54.50
2023-03-30T10:16:07.748Z,55.20
2023-03-30T10:18:41.535Z,57.00
2023-03-30T10:21:22.747Z,56.40
2023-03-30T10:24:04.699Z,53.90
2023-03-30T10:26:31.354Z,51.50
2023-03-30T10:29:04.507Z,50.70
2023-03-30T10:31:35.047Z,49.20
2023-03-30T10:34:03.361Z,47.70
2023-03-30T10:36:33.941Z,51.50
2023-03-30T10:39:06.666Z,49.80
2023-03-30T10:41:34.846Z,46.60
2023-03-30T10:44:19.938Z,47.90
2023-03-30T10:46:49.224Z,46.90
2023-03-30T10:49:42.163Z,46.80
2023-03-30T10:52:14.640Z,45.50
2023-03-30T10:54:46.876Z,47.40
2023-03-30T10:57:17.661Z,48.60
2023-03-30T11:00:04.332Z,49.00
2023-03-30T11:02:46.775Z,47.70
2023-03-30T11:05:18.090Z,45.90
2023-03-30T11:07:50.180Z,43.20
2023-03-30T11:10:16.794Z,39.30
2023-03-30T11:12:58.881Z,42.40
2023-03-30T11:15:31.797Z,42.40
2023-03-30T11:18:13.637Z,42.10
2023-03-30T11:20:55.000Z,41.50
2023-03-30T11:23:49.367Z,41.20
2023-03-30T11:26:37.349Z,43.00
2023-03-30T11:29:28.250Z,44.90
2023-03-30T11:32:18.914Z,51.80
2023-03-30T11:35:10.074Z,59.10
2023-03-30T11:37:51.030Z,58.60
2023-03-30T11:40:23.196Z,60.40
2023-03-30T11:42:52.047Z,62.80
2023-03-30T11:45:46.741Z,62.00
2023-03-30T11:48:47.491Z,62.40
2023-03-30T11:51:38.538Z,61.30
2023-03-30T11:54:17.136Z,61.00
2023-03-30T11:56:46.891Z,58.00
2023-03-30T11:59:42.869Z,59.80
2023-03-30T12:02:39.793Z,60.70
2023-03-30T12:05:31.242Z,54.10
2023-03-30T12:08:39.116Z,54.60
2023-03-30T12:11:37.292Z,47.50
2023-03-30T12:14:18.101Z,45.10
2023-03-30T12:16:51.926Z,46.10
2023-03-30T12:19:55.432Z,46.70
2023-03-30T12:22:45.813Z,51.80
2023-03-30T12:25:18.944Z,51.80
2023-03-30T12:27:58.673Z,52.20
2023-03-30T12:30:50.790Z,47.60
2023-03-30T12:33:35.427Z,45.30
2023-03-30T12:36:07.713Z,41.20
2023-03-30T12:38:43.421Z,42.40
2023-03-30T12:41:22.189Z,40.10
2023-03-30T12:44:14.958Z,41.00
2023-03-30T12:46:58.706Z,36.00
2023-03-30T12:50:00.878Z,35.00
2023-03-30T12:53:04.462Z,35.80
2023-03-30T12:55:49.928Z,34.30
2023-03-30T12:58:51.685Z,33.70
2023-03-30T13:01:45.619Z,35.20
2023-03-30T13:04:24.570Z,32.20
2023-03-30T13:06:56.483Z,34.10
2023-03-30T13:09:26.247Z,33.30
2023-03-30T13:11:52.934Z,31.70
2023-03-30T13:14:30.328Z,29.50
2023-03-30T13:17:17.394Z,27.60
2023-03-30T13:19:48.990Z,29.10
2023-03-30T13:22:15.655Z,29.10
2023-03-30T13:24:42.259Z,28.30
2023-03-30T13:27:14.924Z,27.70
2023-03-30T13:29:48.525Z,28.10
2023-03-30T13:32:40.044Z,28.40
2023-03-30T13:35:19.617Z,28.50
2023-03-30T13:37:58.617Z,27.90
2023-03-30T13:40:40.102Z,28.10
2023-03-30T13:43:42.285Z,29.10
2023-03-30T13:46:55.044Z,30.00
2023-03-30T13:49:47.955Z,30.40
2023-03-30T13:52:26.513Z,31.80
2023-03-30T13:54:53.294Z,31.20
2023-03-30T13:57:25.436Z,31.30
2023-03-30T13:59:54.229Z,31.30
2023-03-30T14:02:22.945Z,30.60
2023-03-30T14:04:50.465Z,31.00
2023-03-30T14:07:20.406Z,31.00
2023-03-30T14:10:17.943Z,30.50
2023-03-30T14:12:48.791Z,30.40
2023-03-30T14:15:18.556Z,30.80
2023-03-30T14:17:51.413Z,30.70
2023-03-30T14:20:26.401Z,29.70
2023-03-30T14:22:54.971Z,30.80
2023-03-30T14:25:57.781Z,31.50
2023-03-30T14:28:27.807Z,31.10
2023-03-30T14:30:57.512Z,31.30
2023-03-30T14:33:25.766Z,31.40
2023-03-30T14:35:58.349Z,31.70
2023-03-30T14:38:30.013Z,31.90
2023-03-30T14:40:56.934Z,33.60
2023-03-30T14:43:27.602Z,34.40
2023-03-30T14:45:57.579Z,33.80
2023-03-30T14:48:32.093Z,34.10
2023-03-30T14:51:00.910Z,33.30
2023-03-30T14:53:29.918Z,34.00
2023-03-30T14:56:00.608Z,35.20
2023-03-30T14:58:31.073Z,34.90
2023-03-30T15:01:06.183Z,35.70
2023-03-30T15:03:37.090Z,34.50
2023-03-30T15:06:07.462Z,35.80
2023-03-30T15:08:39.231Z,38.80
2023-03-30T15:11:21.020Z,38.10
2023-03-30T15:13:53.258Z,38.10
2023-03-30T15:16:22.085Z,34.60
2023-03-30T15:18:51.524Z,34.20
2023-03-30T15:21:18.977Z,33.60
2023-03-30T15:23:47.802Z,32.80
2023-03-30T15:26:15.093Z,34.20
2023-03-30T15:28:49.276Z,34.20
2023-03-30T15:31:16.543Z,34.90
2023-03-30T15:33:52.680Z,35.10
2023-03-30T15:36:22.915Z,35.40
2023-03-30T15:39:00.959Z,36.70
2023-03-30T15:41:59.025Z,37.40
2023-03-30T15:44:25.677Z,37.70
2023-03-30T15:47:05.253Z,38.80
2023-03-30T15:49:43.530Z,39.20
2023-03-30T15:52:19.655Z,39.00
2023-03-30T15:54:55.056Z,39.50
2023-03-30T15:57:27.084Z,39.70
2023-03-30T16:00:01.440Z,39.80
2023-03-30T16:02:39.536Z,40.20
2023-03-30T16:05:12.666Z,40.60
2023-03-30T16:07:41.853Z,41.00
2023-03-30T16:10:30.701Z,40.80
2023-03-30T16:12:58.974Z,40.90
2023-03-30T16:15:31.080Z,41.60
2023-03-30T16:17:57.940Z,42.00
2023-03-30T16:20:27.357Z,43.00
2023-03-30T16:22:54.449Z,42.40
2023-03-30T16:25:34.079Z,43.10
2023-03-30T16:28:15.720Z,42.60
2023-03-30T16:30:44.544Z,42.50
2023-03-30T16:33:11.260Z,41.50
2023-03-30T16:35:38.102Z,40.20
2023-03-30T16:38:04.746Z,40.00
2023-03-30T16:40:35.621Z,39.50
2023-03-30T16:43:02.577Z,40.30
2023-03-30T16:45:29.816Z,39.90
2023-03-30T16:47:56.866Z,40.30
2023-03-30T16:50:37.590Z,40.80
2023-03-30T16:53:05.821Z,40.40
2023-03-30T16:55:33.405Z,41.10
2023-03-30T16:58:00.327Z,40.50
2023-03-30T17:00:34.634Z,39.80
2023-03-30T17:03:01.473Z,40.40
2023-03-30T17:05:28.217Z,40.40
2023-03-30T17:07:55.169Z,40.50
2023-03-30T17:10:31.079Z,40.90
2023-03-30T17:12:57.724Z,40.60
2023-03-30T17:15:25.553Z,40.80
2023-03-30T17:17:53.003Z,40.80
2023-03-30T17:20:48.960Z,41.00
2023-03-30T17:23:18.882Z,41.60
2023-03-30T17:25:49.028Z,41.50
2023-03-30T17:28:30.857Z,42.40
2023-03-30T17:30:59.772Z,43.00
2023-03-30T17:33:26.461Z,42.90
2023-03-30T17:36:02.312Z,43.60
2023-03-30T17:38:29.841Z,43.90
2023-03-30T17:40:56.725Z,44.80
2023-03-30T17:43:23.945Z,44.80
2023-03-30T17:45:50.689Z,45.20
2023-03-30T17:48:19.920Z,45.60
2023-03-30T17:50:50.959Z,45.70
2023-03-30T17:53:20.019Z,46.20
2023-03-30T17:55:49.157Z,47.50
2023-03-30T17:58:20.616Z,47.00
2023-03-30T18:00:48.470Z,47.20
2023-03-30T18:03:16.870Z,47.90
2023-03-30T18:05:46.935Z,48.10
2023-03-30T18:08:17.457Z,48.50
2023-03-30T18:10:47.921Z,49.10
2023-03-30T18:13:16.291Z,49.90
2023-03-30T18:15:45.896Z,50.40
2023-03-30T18:18:13.390Z,50.30
2023-03-30T18:20:44.071Z,50.50
2023-03-30T18:23:10.953Z,51.20
2023-03-30T18:25:37.797Z,52.50
2023-03-30T18:28:04.554Z,52.70
2023-03-30T18:30:37.620Z,52.30
2023-03-30T18:33:05.517Z,52.00
2023-03-30T18:35:35.088Z,52.00
2023-03-30T18:38:02.805Z,52.70
2023-03-30T18:40:36.969Z,52.50
2023-03-30T18:43:04.092Z,53.10
2023-03-30T18:45:39.210Z,54.00
2023-03-30T18:48:08.151Z,55.90
2023-03-30T18:50:46.456Z,57.10
2023-03-30T18:53:18.223Z,57.80
2023-03-30T18:55:47.203Z,58.20
2023-03-30T18:58:20.576Z,58.90
2023-03-30T19:00:48.731Z,60.80
2023-03-30T19:03:16.684Z,61.60
2023-03-30T19:05:44.297Z,62.00
2023-03-30T19:08:25.038Z,62.60
2023-03-30T19:10:55.115Z,62.90
2023-03-30T19:13:23.007Z,63.20
2023-03-30T19:15:51.363Z,63.20
2023-03-30T19:18:18.727Z,62.40
2023-03-30T19:20:45.954Z,62.20
2023-03-30T19:23:15.077Z,62.90
2023-03-30T19:25:42.959Z,63.30
2023-03-30T19:28:10.772Z,62.90
2023-03-30T19:30:39.553Z,63.30
2023-03-30T19:33:12.317Z,63.50
2023-03-30T19:35:40.589Z,63.60
2023-03-30T19:38:07.379Z,63.10
2023-03-30T19:40:34.026Z,63.60
2023-03-30T19:43:00.651Z,63.70
2023-03-30T19:45:27.429Z,64.20
2023-03-30T19:47:54.142Z,64.30
2023-03-30T19:52:50.917Z,65.60
2023-03-30T19:55:19.199Z,66.20
2023-03-30T19:57:45.993Z,67.10
2023-03-30T20:00:15.634Z,67.30
2023-03-30T20:02:45.349Z,68.20
2023-03-30T20:05:13.311Z,68.80
2023-03-30T20:07:41.658Z,69.30
2023-03-30T20:10:11.416Z,70.40
2023-03-30T20:12:38.441Z,71.40
2023-03-30T20:15:06.646Z,72.30
2023-03-30T20:17:33.931Z,72.80
2023-03-30T20:20:06.584Z,73.30
2023-03-30T20:22:38.644Z,74.20
2023-03-30T20:25:07.804Z,74.60
2023-03-30T20:27:35.465Z,75.20
2023-03-30T20:30:03.192Z,75.20
2023-03-30T20:32:29.884Z,75.60
2023-03-30T20:34:56.574Z,76.10
2023-03-30T20:37:23.408Z,76.50
2023-03-30T20:39:50.410Z,76.80
2023-03-30T20:42:18.045Z,77.70
2023-03-30T20:44:50.153Z,77.50
2023-03-30T20:47:17.966Z,77.50
2023-03-30T20:49:46.215Z,78.50
2023-03-30T20:52:13.197Z,79.20
2023-03-30T20:54:41.163Z,80.00
2023-03-30T20:57:07.922Z,80.50
2023-03-30T20:59:35.018Z,81.00
2023-03-30T21:02:03.418Z,81.80
2023-03-30T21:04:30.105Z,82.30
2023-03-30T21:06:57.176Z,82.70
2023-03-30T21:09:24.281Z,83.00
2023-03-30T21:11:51.030Z,83.50
2023-03-30T21:14:17.729Z,83.90
2023-03-30T21:16:44.732Z,83.90
2023-03-30T21:19:12.121Z,84.10
2023-03-30T21:21:38.828Z,84.50
2023-03-30T21:24:07.096Z,84.80
2023-03-30T21:26:33.725Z,85.00
2023-03-30T21:29:00.559Z,85.40
2023-03-30T21:31:27.439Z,85.50
2023-03-30T21:33:54.299Z,85.70
2023-03-30T21:36:21.469Z,85.70
2023-03-30T21:38:48.150Z,85.80
2023-03-30T21:41:17.177Z,85.80
2023-03-30T21:43:47.244Z,85.70
2023-03-30T21:46:17.208Z,85.60
2023-03-30T21:48:45.840Z,85.60
2023-03-30T21:51:18.120Z,85.70
2023-03-30T21:53:48.183Z,86.30
2023-03-30T21:56:15.649Z,86.60
2023-03-30T21:58:42.334Z,87.20
2023-03-30T22:01:12.769Z,87.70
2023-03-30T22:03:41.659Z,87.60
2023-03-30T22:06:10.398Z,87.80
2023-03-30T22:08:37.452Z,88.60
2023-03-30T22:11:12.243Z,88.60
2023-03-30T22:13:39.501Z,88.90
2023-03-30T22:16:10.594Z,89.10
2023-03-30T22:18:37.313Z,89.20
2023-03-30T22:21:06.429Z,89.00
2023-03-30T22:23:33.523Z,88.90
2023-03-30T22:26:00.235Z,89.00
2023-03-30T22:28:27.129Z,88.90
2023-03-30T22:30:54.369Z,88.40
2023-03-30T22:33:21.141Z,88.40
2023-03-30T22:35:48.528Z,88.60
2023-03-30T22:38:16.047Z,88.20
2023-03-30T22:40:42.784Z,88.10
2023-03-30T22:43:10.709Z,87.70
2023-03-30T22:45:37.964Z,87.40
2023-03-30T22:48:05.998Z,86.90
2023-03-30T22:50:33.920Z,86.50
2023-03-30T22:53:01.242Z,86.10
2023-03-30T22:55:28.349Z,85.50
2023-03-30T22:57:56.567Z,85.30
2023-03-30T23:00:23.576Z,85.30
2023-03-30T23:02:50.768Z,85.40
2023-03-30T23:05:21.073Z,85.40
2023-03-30T23:07:49.074Z,85.30
2023-03-30T23:10:19.066Z,85.40
2023-03-30T23:12:46.468Z,85.70
2023-03-30T23:15:14.370Z,86.00
2023-03-30T23:17:41.273Z,85.80
2023-03-30T23:20:11.716Z,86.20
2023-03-30T23:22:38.972Z,86.40
2023-03-30T23:25:06.816Z,86.70
2023-03-30T23:27:34.353Z,87.20
2023-03-30T23:30:00.991Z,87.20
2023-03-30T23:32:27.611Z,87.00
2023-03-30T23:34:54.346Z,86.60
2023-03-30T23:37:21.994Z,86.40
2023-03-30T23:39:49.059Z,86.70
2023-03-30T23:42:16.241Z,87.00
2023-03-30T23:44:42.993Z,87.20
2023-03-30T23:47:09.687Z,87.40
2023-03-30T23:49:36.321Z,87.60
2023-03-30T23:52:02.939Z,87.80
2023-03-30T23:54:31.537Z,88.00
2023-03-30T23:56:58.407Z,88.30
2023-03-30T23:59:25.270Z,88.70
